Time;durP1;ratioP1;P1;durP2;ratioP2;P2;SDS_P1;SDS_P2;PMS_P1;PMS_P2;Temp;Humidity;BMP_temperature;BMP_pressure;BME280_temperature;BME280_humidity;BME280_pressure;Samples;Min_cycle;Max_cycle;Signal;HPM_P1;HPM_P2
2023/05/11 00:02:23;;;;;;;2.57;1.50;;;;;;;;;;5021717;28;20199;-77
2023/05/11 00:04:49;;;;;;;2.90;1.60;;;;;;;;;;5022234;28;20653;-77
2023/05/11 00:07:15;;;;;;;3.07;1.50;;;;;;;;;;5012498;28;20175;-76
2023/05/11 00:09:41;;;;;;;2.80;1.43;;;;;;;;;;5014415;28;20235;-76
2023/05/11 00:12:07;;;;;;;1.60;1.37;;;;;;;;;;4977722;28;20298;-76
2023/05/11 00:14:33;;;;;;;1.80;1.47;;;;;;;;;;4991549;28;20180;-77
2023/05/11 00:16:59;;;;;;;2.50;1.50;;;;;;;;;;4991499;28;20230;-77
2023/05/11 00:19:30;;;;;;;1.30;1.20;;;;;;;;;;4990517;28;20183;-77
2023/05/11 00:21:57;;;;;;;2.30;1.30;;;;;;;;;;4991589;28;20222;-77
2023/05/11 00:24:24;;;;;;;3.13;1.70;;;;;;;;;;4991043;28;20192;-76
2023/05/11 00:26:50;;;;;;;1.63;1.37;;;;;;;;;;4990232;28;20184;-76
2023/05/11 00:29:16;;;;;;;1.70;1.53;;;;;;;;;;4991045;28;20203;-77
2023/05/11 00:31:46;;;;;;;3.30;1.30;;;;;;;;;;4991289;28;20254;-77
2023/05/11 00:34:13;;;;;;;3.20;1.60;;;;;;;;;;4989666;28;20643;-76
2023/05/11 00:36:41;;;;;;;2.13;1.50;;;;;;;;;;5013861;28;20179;-77
2023/05/11 00:39:07;;;;;;;1.67;1.40;;;;;;;;;;5009418;28;20187;-77
2023/05/11 00:41:33;;;;;;;3.57;1.50;;;;;;;;;;5004291;28;20216;-77
2023/05/11 00:44:00;;;;;;;1.70;1.60;;;;;;;;;;4991422;28;20164;-77
2023/05/11 00:46:30;;;;;;;2.43;1.60;;;;;;;;;;5012651;28;20511;-76
2023/05/11 00:48:56;;;;;;;4.03;1.47;;;;;;;;;;5018252;28;20262;-77
2023/05/11 00:51:22;;;;;;;1.70;1.60;;;;;;;;;;5004788;28;20559;-77
2023/05/11 00:53:51;;;;;;;3.57;1.87;;;;;;;;;;5014394;28;20206;-77
2023/05/11 00:56:18;;;;;;;2.00;1.60;;;;;;;;;;4998066;28;20194;-77
2023/05/11 00:58:45;;;;;;;2.40;1.60;;;;;;;;;;5019316;28;20178;-76
2023/05/11 01:01:13;;;;;;;2.00;1.80;;;;;;;;;;5022608;28;20221;-77
2023/05/11 01:03:39;;;;;;;1.60;1.50;;;;;;;;;;5017117;28;20685;-75
2023/05/11 01:06:27;;;;;;;4.13;2.00;;;;;;;;;;5019530;28;20647;-77
2023/05/11 01:09:02;;;;;;;1.53;1.43;;;;;;;;;;5020594;28;20184;-76
2023/05/11 01:11:38;;;;;;;1.77;1.47;;;;;;;;;;5019585;28;20608;-76
2023/05/11 01:14:20;;;;;;;2.07;1.50;;;;;;;;;;4996232;28;20515;-77
2023/05/11 01:16:48;;;;;;;2.73;1.43;;;;;;;;;;5016532;28;20179;-77
2023/05/11 01:19:16;;;;;;;3.70;1.40;;;;;;;;;;5021145;28;20560;-77
2023/05/11 01:21:44;;;;;;;4.00;1.70;;;;;;;;;;5019684;28;20211;-77
2023/05/11 01:24:23;;;;;;;2.67;1.70;;;;;;;;;;5028790;28;20183;-77
2023/05/11 01:26:49;;;;;;;1.83;1.50;;;;;;;;;;5034818;28;20194;-77
2023/05/11 01:29:17;;;;;;;1.90;1.60;;;;;;;;;;4984933;28;20212;-77
2023/05/11 01:31:46;;;;;;;4.47;1.70;;;;;;;;;;5019387;28;20199;-77
2023/05/11 01:34:17;;;;;;;2.07;1.60;;;;;;;;;;5019573;28;20182;-77
2023/05/11 01:36:51;;;;;;;1.80;1.60;;;;;;;;;;5016918;28;20182;-77
2023/05/11 01:39:20;;;;;;;1.83;1.67;;;;;;;;;;5033675;28;20190;-77
2023/05/11 01:41:48;;;;;;;2.10;1.70;;;;;;;;;;5001903;28;20210;-76
2023/05/11 01:44:15;;;;;;;4.67;1.93;;;;;;;;;;5021186;28;20674;-77
2023/05/11 01:46:41;;;;;;;2.13;1.93;;;;;;;;;;5017014;28;20312;-77
2023/05/11 01:49:07;;;;;;;3.10;2.00;;;;;;;;;;5003425;28;20186;-76
2023/05/11 01:51:38;;;;;;;2.77;1.80;;;;;;;;;;5029646;28;20734;-77
2023/05/11 01:54:06;;;;;;;2.83;1.97;;;;;;;;;;5029758;28;20171;-76
2023/05/11 01:56:34;;;;;;;4.00;1.90;;;;;;;;;;5007267;28;20222;-76
2023/05/11 01:59:02;;;;;;;1.93;1.83;;;;;;;;;;5011619;28;20210;-76
2023/05/11 02:01:28;;;;;;;2.10;1.80;;;;;;;;;;5016223;28;20187;-76
2023/05/11 02:03:55;;;;;;;3.13;1.77;;;;;;;;;;5017399;28;20179;-77
2023/05/11 02:06:22;;;;;;;1.60;1.50;;;;;;;;;;5012149;28;20191;-77
2023/05/11 02:08:49;;;;;;;1.67;1.57;;;;;;;;;;5014774;28;20274;-77
2023/05/11 02:11:15;;;;;;;2.07;1.67;;;;;;;;;;5011511;28;20210;-76
2023/05/11 02:13:43;;;;;;;2.77;1.87;;;;;;;;;;5017174;28;20194;-76
2023/05/11 02:16:10;;;;;;;2.43;1.77;;;;;;;;;;5014762;28;20555;-77
2023/05/11 02:18:37;;;;;;;2.03;1.50;;;;;;;;;;4995083;28;20183;-77
2023/05/11 02:21:04;;;;;;;2.70;1.80;;;;;;;;;;5013561;28;20194;-76
2023/05/11 02:23:32;;;;;;;3.53;1.97;;;;;;;;;;5011379;28;20236;-77
2023/05/11 02:25:58;;;;;;;1.83;1.57;;;;;;;;;;5011532;28;20319;-77
2023/05/11 02:28:25;;;;;;;3.70;1.60;;;;;;;;;;5011321;28;20187;-77
2023/05/11 02:30:53;;;;;;;2.00;1.50;;;;;;;;;;5011277;28;20667;-77
2023/05/11 02:33:23;;;;;;;2.73;1.50;;;;;;;;;;5010658;28;20199;-77
2023/05/11 02:35:50;;;;;;;3.67;1.70;;;;;;;;;;5006422;28;20187;-76
2023/05/11 02:38:18;;;;;;;1.87;1.60;;;;;;;;;;5030895;28;20258;-77
2023/05/11 02:40:46;;;;;;;2.37;1.77;;;;;;;;;;4999389;28;20569;-76
2023/05/11 02:43:15;;;;;;;3.30;1.60;;;;;;;;;;5010545;28;20243;-77
2023/05/11 02:45:50;;;;;;;3.20;1.50;;;;;;;;;;5011186;28;20182;-77
2023/05/11 02:48:22;;;;;;;3.03;1.60;;;;;;;;;;5010947;28;20277;-77
2023/05/11 02:50:50;;;;;;;2.50;1.90;;;;;;;;;;4994382;28;20297;-77
2023/05/11 02:53:21;;;;;;;2.20;2.00;;;;;;;;;;5010707;28;20200;-76
2023/05/11 02:55:48;;;;;;;2.83;1.70;;;;;;;;;;5021019;28;20179;-77
2023/05/11 02:58:15;;;;;;;2.13;1.90;;;;;;;;;;5010630;28;20202;-77
2023/05/11 03:00:45;;;;;;;2.63;2.03;;;;;;;;;;5018579;28;20327;-76
2023/05/11 03:03:11;;;;;;;2.30;2.10;;;;;;;;;;5017698;28;20215;-77
2023/05/11 03:05:37;;;;;;;2.50;1.90;;;;;;;;;;4995301;28;20199;-77
2023/05/11 03:08:04;;;;;;;3.30;1.97;;;;;;;;;;4976138;28;20195;-77
2023/05/11 03:10:30;;;;;;;2.47;2.03;;;;;;;;;;5014637;28;20682;-77
2023/05/11 03:12:57;;;;;;;6.43;2.20;;;;;;;;;;5023677;28;20190;-77
2023/05/11 03:15:24;;;;;;;2.87;1.90;;;;;;;;;;5006385;28;20663;-77
2023/05/11 03:17:52;;;;;;;4.17;2.30;;;;;;;;;;4996864;28;20238;-77
2023/05/11 03:20:19;;;;;;;6.83;2.20;;;;;;;;;;5020199;28;20182;-77
2023/05/11 03:22:46;;;;;;;2.40;2.00;;;;;;;;;;5019869;28;20211;-77
2023/05/11 03:25:13;;;;;;;2.10;1.90;;;;;;;;;;5009507;28;20187;-77
2023/05/11 03:27:41;;;;;;;2.60;1.90;;;;;;;;;;5014463;28;20229;-76
2023/05/11 03:30:09;;;;;;;2.77;2.07;;;;;;;;;;5014499;28;20203;-77
2023/05/11 03:32:39;;;;;;;2.77;2.07;;;;;;;;;;4997684;28;20218;-77
2023/05/11 03:35:06;;;;;;;3.50;1.90;;;;;;;;;;4993276;28;20183;-77
2023/05/11 03:37:32;;;;;;;1.90;1.80;;;;;;;;;;5007826;28;20182;-77
2023/05/11 03:39:59;;;;;;;4.13;1.90;;;;;;;;;;5015046;28;20183;-76
2023/05/11 03:42:28;;;;;;;2.30;2.10;;;;;;;;;;5009192;28;20222;-76
2023/05/11 03:44:58;;;;;;;1.60;1.50;;;;;;;;;;5009961;28;20187;-76
2023/05/11 03:47:28;;;;;;;4.07;1.97;;;;;;;;;;5010986;28;20183;-76
2023/05/11 03:49:55;;;;;;;2.97;2.03;;;;;;;;;;5015169;28;20202;-76
2023/05/11 03:52:23;;;;;;;2.07;1.93;;;;;;;;;;5005506;28;20235;-76
2023/05/11 03:54:50;;;;;;;2.07;1.90;;;;;;;;;;4979540;28;20227;-77
2023/05/11 03:57:19;;;;;;;1.93;1.70;;;;;;;;;;4991143;28;20183;-77
2023/05/11 03:59:45;;;;;;;2.97;1.73;;;;;;;;;;5009402;28;20225;-76
2023/05/11 04:02:11;;;;;;;2.07;1.90;;;;;;;;;;5014190;28;20199;-77
2023/05/11 04:04:37;;;;;;;2.10;1.90;;;;;;;;;;5009624;28;20199;-77
2023/05/11 04:07:04;;;;;;;2.07;1.87;;;;;;;;;;5022794;28;20550;-77
2023/05/11 04:09:30;;;;;;;2.97;1.80;;;;;;;;;;5020397;28;20217;-77
2023/05/11 04:11:56;;;;;;;1.90;1.70;;;;;;;;;;5013666;28;20683;-77
2023/05/11 04:14:22;;;;;;;2.00;1.87;;;;;;;;;;5009162;28;20179;-76
2023/05/11 04:16:49;;;;;;;1.83;1.73;;;;;;;;;;5028028;28;20191;-77
2023/05/11 04:19:15;;;;;;;3.63;1.90;;;;;;;;;;5031483;28;20261;-75
2023/05/11 04:21:41;;;;;;;3.73;1.73;;;;;;;;;;5024889;28;20202;-76
2023/05/11 04:24:08;;;;;;;1.70;1.60;;;;;;;;;;5016824;28;20176;-77
2023/05/11 04:26:34;;;;;;;3.73;2.50;;;;;;;;;;4990227;28;20218;-76
2023/05/11 04:29:00;;;;;;;4.33;2.30;;;;;;;;;;5006554;28;20281;-77
2023/05/11 04:31:26;;;;;;;3.00;2.30;;;;;;;;;;5012893;28;20183;-77
2023/05/11 04:33:53;;;;;;;3.07;2.80;;;;;;;;;;5002391;28;20254;-77
2023/05/11 04:36:21;;;;;;;2.50;2.30;;;;;;;;;;5023846;28;20187;-77
2023/05/11 04:38:47;;;;;;;3.73;2.03;;;;;;;;;;5017653;28;20188;-77
2023/05/11 04:41:14;;;;;;;3.37;2.10;;;;;;;;;;5019362;28;20180;-76
2023/05/11 04:43:41;;;;;;;2.30;1.83;;;;;;;;;;5017971;28;20571;-77
2023/05/11 04:46:08;;;;;;;3.00;2.50;;;;;;;;;;5021649;28;20267;-77
2023/05/11 04:48:34;;;;;;;2.50;2.03;;;;;;;;;;5017924;28;20179;-76
2023/05/11 04:51:03;;;;;;;4.00;2.30;;;;;;;;;;5012671;28;20589;-76
2023/05/11 04:53:31;;;;;;;2.20;2.00;;;;;;;;;;5012377;28;20234;-76
2023/05/11 04:55:58;;;;;;;3.63;2.30;;;;;;;;;;5012762;28;20259;-77
2023/05/11 04:58:24;;;;;;;2.70;2.13;;;;;;;;;;4998443;28;20175;-77
2023/05/11 05:00:50;;;;;;;3.43;1.90;;;;;;;;;;5015594;28;20175;-77
2023/05/11 05:03:17;;;;;;;2.77;2.50;;;;;;;;;;5022088;28;20629;-76
2023/05/11 05:05:43;;;;;;;2.90;2.20;;;;;;;;;;5005252;28;20178;-76
2023/05/11 05:08:10;;;;;;;4.17;2.37;;;;;;;;;;5021196;28;20595;-76
2023/05/11 05:10:37;;;;;;;3.80;2.57;;;;;;;;;;4989502;28;20214;-77
2023/05/11 05:13:03;;;;;;;3.97;2.43;;;;;;;;;;5013736;28;20209;-76
2023/05/11 05:15:30;;;;;;;4.50;2.70;;;;;;;;;;5014176;28;20179;-77
2023/05/11 05:17:57;;;;;;;3.37;2.50;;;;;;;;;;5013364;28;20171;-77
2023/05/11 05:20:23;;;;;;;3.13;2.43;;;;;;;;;;5018584;28;20182;-76
2023/05/11 05:22:49;;;;;;;4.00;2.40;;;;;;;;;;5023492;28;20265;-76
2023/05/11 05:25:16;;;;;;;2.90;2.50;;;;;;;;;;5012866;28;20183;-76
2023/05/11 05:27:42;;;;;;;2.60;2.40;;;;;;;;;;5022234;28;20184;-77
2023/05/11 05:30:15;;;;;;;3.47;2.40;;;;;;;;;;5011168;28;20230;-77
2023/05/11 05:32:41;;;;;;;3.07;2.43;;;;;;;;;;5027441;28;20693;-81
2023/05/11 05:35:09;;;;;;;3.33;2.60;;;;;;;;;;5032350;28;20168;-78
2023/05/11 05:37:36;;;;;;;4.93;2.50;;;;;;;;;;4997805;28;20187;-79
2023/05/11 05:40:03;;;;;;;3.73;2.50;;;;;;;;;;5012919;28;20194;-83
2023/05/11 05:42:32;;;;;;;3.77;2.80;;;;;;;;;;5012705;28;20215;-79
2023/05/11 05:44:58;;;;;;;3.57;2.93;;;;;;;;;;5023268;28;20183;-78
2023/05/11 05:47:24;;;;;;;4.23;2.53;;;;;;;;;;5014307;28;20189;-77
2023/05/11 05:49:50;;;;;;;5.20;2.80;;;;;;;;;;4994756;28;20245;-77
2023/05/11 05:52:17;;;;;;;3.80;2.73;;;;;;;;;;5013519;28;20214;-78
2023/05/11 05:54:43;;;;;;;5.93;3.70;;;;;;;;;;4984336;28;20175;-78
2023/05/11 05:57:10;;;;;;;4.17;3.77;;;;;;;;;;5012507;28;20176;-78
2023/05/11 05:59:36;;;;;;;4.40;3.17;;;;;;;;;;5024407;28;20184;-78
2023/05/11 06:02:02;;;;;;;4.00;3.30;;;;;;;;;;5023799;28;20203;-78
2023/05/11 06:04:29;;;;;;;3.93;3.43;;;;;;;;;;5011560;28;20250;-78
2023/05/11 06:06:56;;;;;;;4.90;3.50;;;;;;;;;;5012822;28;20179;-78
2023/05/11 06:09:23;;;;;;;5.23;3.27;;;;;;;;;;4996633;28;20639;-78
2023/05/11 06:11:49;;;;;;;4.63;3.43;;;;;;;;;;5013709;28;20286;-79
2023/05/11 06:14:15;;;;;;;4.57;3.33;;;;;;;;;;5021599;28;20187;-79
2023/05/11 06:16:42;;;;;;;3.50;3.13;;;;;;;;;;4998753;28;20191;-78
2023/05/11 06:19:08;;;;;;;6.00;3.80;;;;;;;;;;5019453;28;20191;-79
2023/05/11 06:21:35;;;;;;;4.63;4.13;;;;;;;;;;5014627;28;20242;-80
2023/05/11 06:24:01;;;;;;;6.80;4.60;;;;;;;;;;4979845;28;20230;-80
2023/05/11 06:26:28;;;;;;;5.30;4.60;;;;;;;;;;4979461;28;20568;-80
2023/05/11 06:28:55;;;;;;;6.37;4.17;;;;;;;;;;5017068;28;20646;-79
2023/05/11 06:31:23;;;;;;;5.83;4.87;;;;;;;;;;5027859;28;20210;-79
2023/05/11 06:33:50;;;;;;;6.37;4.67;;;;;;;;;;5013663;28;20210;-79
2023/05/11 06:36:23;;;;;;;5.33;4.47;;;;;;;;;;4986990;28;20195;-79
2023/05/11 06:38:49;;;;;;;5.80;4.90;;;;;;;;;;5005515;28;20206;-79
2023/05/11 06:41:15;;;;;;;6.97;4.93;;;;;;;;;;4999474;28;20209;-79
2023/05/11 06:43:41;;;;;;;6.33;4.77;;;;;;;;;;4998062;28;20211;-80
2023/05/11 06:46:19;;;;;;;7.17;4.63;;;;;;;;;;5022236;28;20186;-80
2023/05/11 06:48:45;;;;;;;8.30;5.20;;;;;;;;;;5001643;28;20186;-81
2023/05/11 06:51:12;;;;;;;5.27;4.77;;;;;;;;;;4990785;28;20199;-81
2023/05/11 06:53:38;;;;;;;5.37;4.83;;;;;;;;;;5013750;28;20249;-81
2023/05/11 06:56:05;;;;;;;6.37;5.10;;;;;;;;;;5012267;28;20742;-80
2023/05/11 06:58:31;;;;;;;6.83;5.13;;;;;;;;;;5012133;28;20638;-79
2023/05/11 07:00:57;;;;;;;6.20;5.00;;;;;;;;;;5011852;28;20194;-81
2023/05/11 07:03:23;;;;;;;5.80;5.20;;;;;;;;;;5011208;28;20253;-80
2023/05/11 07:05:49;;;;;;;8.47;5.13;;;;;;;;;;5010912;28;20673;-81
2023/05/11 07:08:15;;;;;;;6.20;5.10;;;;;;;;;;5011812;28;20177;-81
2023/05/11 07:10:41;;;;;;;5.50;5.00;;;;;;;;;;4996151;28;20221;-81
2023/05/11 07:13:07;;;;;;;5.83;4.77;;;;;;;;;;4995836;28;20211;-80
2023/05/11 07:15:34;;;;;;;5.70;4.40;;;;;;;;;;4996016;28;20685;-81
2023/05/11 07:18:00;;;;;;;6.20;5.00;;;;;;;;;;4995846;28;20707;-81
2023/05/11 07:20:26;;;;;;;6.60;4.80;;;;;;;;;;5011970;28;20194;-81
2023/05/11 07:22:56;;;;;;;5.27;4.77;;;;;;;;;;5011310;28;20215;-81
2023/05/11 07:25:22;;;;;;;5.57;4.40;;;;;;;;;;5011591;28;20191;-81
2023/05/11 07:27:48;;;;;;;5.93;5.03;;;;;;;;;;5011946;28;20796;-81
2023/05/11 07:30:15;;;;;;;5.20;4.63;;;;;;;;;;4999075;28;20234;-81
2023/05/11 07:32:41;;;;;;;7.10;5.23;;;;;;;;;;5012299;28;20569;-81
2023/05/11 07:35:07;;;;;;;5.50;4.83;;;;;;;;;;4995707;28;20183;-80
2023/05/11 07:37:33;;;;;;;6.87;4.37;;;;;;;;;;5011612;28;20569;-81
2023/05/11 07:40:00;;;;;;;5.97;4.43;;;;;;;;;;5011569;28;20677;-81
2023/05/11 07:42:26;;;;;;;6.03;5.10;;;;;;;;;;4994947;28;20211;-80
2023/05/11 07:44:52;;;;;;;6.43;4.47;;;;;;;;;;5011784;28;20197;-80
2023/05/11 07:47:19;;;;;;;6.17;4.77;;;;;;;;;;4995448;28;20610;-80
2023/05/11 07:49:46;;;;;;;5.90;4.60;;;;;;;;;;4995471;28;20297;-81
2023/05/11 07:52:12;;;;;;;4.30;3.90;;;;;;;;;;5010844;28;20755;-81
2023/05/11 07:54:39;;;;;;;8.53;4.40;;;;;;;;;;4997740;28;20183;-80
2023/05/11 07:57:05;;;;;;;4.53;3.93;;;;;;;;;;5015174;28;20186;-81
2023/05/11 07:59:31;;;;;;;4.70;4.30;;;;;;;;;;5017602;28;20179;-80
2023/05/11 08:01:58;;;;;;;4.77;4.07;;;;;;;;;;5015178;28;20198;-81
2023/05/11 08:04:26;;;;;;;4.30;3.90;;;;;;;;;;5015309;28;20182;-81
2023/05/11 08:06:52;;;;;;;4.73;4.23;;;;;;;;;;5015990;28;20190;-81
2023/05/11 08:09:18;;;;;;;7.30;4.27;;;;;;;;;;5015223;28;20186;-81
2023/05/11 08:11:45;;;;;;;5.30;4.73;;;;;;;;;;5014408;28;20199;-81
2023/05/11 08:14:11;;;;;;;5.50;4.03;;;;;;;;;;5015749;28;20195;-81
2023/05/11 08:16:37;;;;;;;5.27;4.40;;;;;;;;;;4997842;28;20187;-82
2023/05/11 08:19:03;;;;;;;6.93;4.77;;;;;;;;;;4998021;28;20237;-81
2023/05/11 08:21:29;;;;;;;6.13;5.00;;;;;;;;;;5013568;28;20205;-80
2023/05/11 08:23:55;;;;;;;6.40;4.90;;;;;;;;;;5014120;28;20187;-80
2023/05/11 08:26:21;;;;;;;4.53;4.13;;;;;;;;;;4997883;28;20188;-80
2023/05/11 08:28:47;;;;;;;5.27;4.57;;;;;;;;;;5014084;28;20195;-80
2023/05/11 08:31:14;;;;;;;4.53;4.13;;;;;;;;;;5013965;28;20640;-79
2023/05/11 08:33:40;;;;;;;5.73;5.20;;;;;;;;;;5014672;28;20196;-81
2023/05/11 08:36:06;;;;;;;4.80;4.30;;;;;;;;;;5014715;28;20184;-81
2023/05/11 08:38:33;;;;;;;6.17;5.00;;;;;;;;;;4997811;28;20588;-81
2023/05/11 08:41:01;;;;;;;6.20;4.23;;;;;;;;;;5014104;28;20642;-81
2023/05/11 08:43:27;;;;;;;7.90;5.13;;;;;;;;;;5014955;28;20277;-81
2023/05/11 08:45:56;;;;;;;5.13;4.63;;;;;;;;;;4999857;28;20183;-81
2023/05/11 08:48:22;;;;;;;5.73;4.87;;;;;;;;;;5002673;28;20658;-80
2023/05/11 08:50:49;;;;;;;5.00;4.50;;;;;;;;;;5019090;28;20241;-81
2023/05/11 08:53:15;;;;;;;5.07;4.57;;;;;;;;;;5018877;28;20202;-81
2023/05/11 08:55:43;;;;;;;6.60;4.43;;;;;;;;;;5018512;28;20230;-81
2023/05/11 08:58:09;;;;;;;5.20;4.70;;;;;;;;;;4997991;28;20905;-81
2023/05/11 09:00:35;;;;;;;5.33;4.83;;;;;;;;;;4997643;28;20234;-81
2023/05/11 09:03:03;;;;;;;4.77;4.37;;;;;;;;;;4997001;28;20461;-81
2023/05/11 09:05:30;;;;;;;5.63;5.03;;;;;;;;;;5012834;28;20179;-81
2023/05/11 09:07:59;;;;;;;5.13;4.63;;;;;;;;;;5013825;28;20722;-81
2023/05/11 09:10:25;;;;;;;5.97;5.30;;;;;;;;;;5013378;28;20261;-80
2023/05/11 09:12:51;;;;;;;6.27;5.47;;;;;;;;;;5013274;28;20203;-81
2023/05/11 09:15:17;;;;;;;6.17;5.57;;;;;;;;;;5013736;28;20666;-81
2023/05/11 09:17:44;;;;;;;5.90;5.30;;;;;;;;;;5013170;28;20183;-81
2023/05/11 09:20:10;;;;;;;5.97;5.40;;;;;;;;;;5015444;28;20183;-81
2023/05/11 09:22:46;;;;;;;6.53;5.53;;;;;;;;;;5015802;28;20301;-82
2023/05/11 09:25:13;;;;;;;6.83;5.13;;;;;;;;;;4999801;28;20562;-81
2023/05/11 09:27:43;;;;;;;6.73;5.63;;;;;;;;;;5018756;28;20230;-81
2023/05/11 09:30:17;;;;;;;6.00;5.40;;;;;;;;;;5015233;28;20230;-81
2023/05/11 09:32:49;;;;;;;6.00;5.40;;;;;;;;;;5000007;28;20645;-81
2023/05/11 09:35:26;;;;;;;6.00;5.40;;;;;;;;;;4997653;28;20258;-82
2023/05/11 09:38:05;;;;;;;5.80;5.10;;;;;;;;;;5014731;28;20245;-81
2023/05/11 09:40:33;;;;;;;7.00;5.07;;;;;;;;;;4997394;28;20194;-82
2023/05/11 09:43:00;;;;;;;5.57;5.07;;;;;;;;;;5013366;28;20209;-82
2023/05/11 09:45:35;;;;;;;8.23;4.80;;;;;;;;;;5000066;28;20191;-80
2023/05/11 09:48:02;;;;;;;4.77;4.20;;;;;;;;;;5012474;28;20271;-82
2023/05/11 09:50:36;;;;;;;5.20;4.53;;;;;;;;;;4998671;28;20226;-82
2023/05/11 09:53:02;;;;;;;5.40;4.90;;;;;;;;;;4998183;28;20207;-82
2023/05/11 09:55:28;;;;;;;5.50;4.50;;;;;;;;;;4999458;28;20303;-82
2023/05/11 09:57:56;;;;;;;5.03;4.30;;;;;;;;;;5015422;28;20266;-82
2023/05/11 10:00:24;;;;;;;6.17;4.77;;;;;;;;;;5012448;28;20187;-81
2023/05/11 10:02:59;;;;;;;5.63;5.13;;;;;;;;;;4996790;28;20206;-82
2023/05/11 10:05:25;;;;;;;5.60;5.10;;;;;;;;;;5013481;28;20185;-82
2023/05/11 10:08:02;;;;;;;5.73;4.40;;;;;;;;;;5013489;28;20188;-81
2023/05/11 10:10:29;;;;;;;5.27;4.77;;;;;;;;;;5014503;28;20221;-81
2023/05/11 10:12:59;;;;;;;8.57;5.10;;;;;;;;;;5012903;28;20294;-82
2023/05/11 10:15:27;;;;;;;6.60;5.33;;;;;;;;;;4996375;28;20183;-81
2023/05/11 10:18:01;;;;;;;7.23;4.77;;;;;;;;;;4996069;28;20187;-81
2023/05/11 10:20:27;;;;;;;4.80;4.40;;;;;;;;;;4996311;28;20252;-81
2023/05/11 10:22:54;;;;;;;8.00;5.00;;;;;;;;;;5011921;28;20721;-81
2023/05/11 10:25:21;;;;;;;4.80;4.40;;;;;;;;;;5012807;28;20610;-82
2023/05/11 10:27:48;;;;;;;6.60;4.57;;;;;;;;;;5014177;28;20646;-81
2023/05/11 10:30:14;;;;;;;5.53;4.50;;;;;;;;;;5013653;28;20209;-82
2023/05/11 10:32:41;;;;;;;6.77;5.10;;;;;;;;;;5013195;28;20297;-82
2023/05/11 10:35:07;;;;;;;5.30;4.80;;;;;;;;;;5012422;28;20210;-81
2023/05/11 10:37:33;;;;;;;4.83;4.40;;;;;;;;;;5012013;28;20179;-81
2023/05/11 10:39:59;;;;;;;5.53;4.30;;;;;;;;;;5011938;28;20183;-82
2023/05/11 10:42:44;;;;;;;6.93;5.10;;;;;;;;;;5012272;28;20546;-81
2023/05/11 10:45:10;;;;;;;5.53;4.93;;;;;;;;;;5012216;28;20191;-81
2023/05/11 10:47:59;;;;;;;5.70;3.87;;;;;;;;;;4995760;28;20782;-81
2023/05/11 10:50:35;;;;;;;4.73;3.93;;;;;;;;;;5013351;28;20218;-82
2023/05/11 10:53:01;;;;;;;5.17;3.90;;;;;;;;;;5011692;28;20642;-82
2023/05/11 10:55:38;;;;;;;5.03;4.10;;;;;;;;;;4995549;28;20179;-82
2023/05/11 10:58:09;;;;;;;4.40;4.00;;;;;;;;;;5012094;28;20630;-82
2023/05/11 11:00:42;;;;;;;4.80;4.27;;;;;;;;;;5011494;28;20175;-81
2023/05/11 11:03:12;;;;;;;7.40;4.40;;;;;;;;;;5010971;28;20210;-82
2023/05/11 11:05:38;;;;;;;4.37;3.97;;;;;;;;;;4995264;28;20557;-82
2023/05/11 11:08:07;;;;;;;4.33;3.93;;;;;;;;;;5011415;28;20183;-82
2023/05/11 11:10:44;;;;;;;5.77;5.13;;;;;;;;;;5011231;28;20675;-82
2023/05/11 11:13:11;;;;;;;6.40;4.80;;;;;;;;;;5012544;28;20656;-82
2023/05/11 11:15:55;;;;;;;5.13;4.07;;;;;;;;;;5012654;28;20622;-81
2023/05/11 11:18:25;;;;;;;6.03;4.77;;;;;;;;;;4995471;28;20198;-82
2023/05/11 11:20:53;;;;;;;4.87;4.37;;;;;;;;;;5000900;28;20245;-81
2023/05/11 11:23:38;;;;;;;5.50;5.00;;;;;;;;;;4983435;28;20246;-82
2023/05/11 11:26:04;;;;;;;8.87;5.10;;;;;;;;;;5015914;28;20672;-81
2023/05/11 11:28:50;;;;;;;5.13;4.30;;;;;;;;;;4999066;28;20226;-82
2023/05/11 11:31:26;;;;;;;10.37;5.73;;;;;;;;;;5015218;28;20260;-82
2023/05/11 11:33:52;;;;;;;6.70;5.77;;;;;;;;;;5015235;28;20190;-82
2023/05/11 11:36:39;;;;;;;8.97;6.17;;;;;;;;;;4998624;28;20294;-82
2023/05/11 11:39:05;;;;;;;7.87;5.67;;;;;;;;;;4997695;28;20183;-82
2023/05/11 11:41:32;;;;;;;9.33;5.90;;;;;;;;;;5014383;28;20186;-82
2023/05/11 11:43:59;;;;;;;6.37;5.80;;;;;;;;;;5012938;28;20215;-82
2023/05/11 11:46:27;;;;;;;5.73;5.07;;;;;;;;;;5013509;28;20255;-82
2023/05/11 11:49:06;;;;;;;6.40;5.80;;;;;;;;;;5013024;28;20190;-82
2023/05/11 11:51:33;;;;;;;6.70;6.10;;;;;;;;;;5012386;28;20199;-81
2023/05/11 11:53:59;;;;;;;8.73;7.03;;;;;;;;;;5012026;28;20183;-82
2023/05/11 11:56:25;;;;;;;6.27;5.77;;;;;;;;;;5012820;28;20199;-82
2023/05/11 11:58:51;;;;;;;8.83;6.33;;;;;;;;;;5014815;28;20171;-82
2023/05/11 12:01:19;;;;;;;8.23;6.07;;;;;;;;;;5015273;28;20625;-82
2023/05/11 12:03:46;;;;;;;8.33;7.03;;;;;;;;;;4997108;28;20207;-81
2023/05/11 12:06:13;;;;;;;7.93;7.10;;;;;;;;;;5013199;28;20186;-82
2023/05/11 12:08:39;;;;;;;8.13;7.33;;;;;;;;;;5013277;28;20195;-81
2023/05/11 12:11:06;;;;;;;9.80;7.57;;;;;;;;;;5012694;28;20211;-82
2023/05/11 12:13:33;;;;;;;7.67;6.90;;;;;;;;;;4998044;28;20679;-82
2023/05/11 12:16:09;;;;;;;9.23;7.50;;;;;;;;;;4995956;28;20194;-82
2023/05/11 12:18:35;;;;;;;9.57;7.80;;;;;;;;;;4996001;28;20195;-82
2023/05/11 12:21:02;;;;;;;8.50;7.60;;;;;;;;;;5011707;28;20184;-81
2023/05/11 12:23:28;;;;;;;9.03;8.17;;;;;;;;;;5012080;28;20207;-82
2023/05/11 12:26:02;;;;;;;9.13;8.23;;;;;;;;;;4999498;28;20191;-82
2023/05/11 12:28:28;;;;;;;9.53;7.23;;;;;;;;;;5016093;28;20537;-82
2023/05/11 12:30:55;;;;;;;9.60;8.03;;;;;;;;;;4998072;28;20215;-82
2023/05/11 12:33:22;;;;;;;8.40;7.60;;;;;;;;;;5013673;28;20192;-82
2023/05/11 12:35:55;;;;;;;7.90;7.20;;;;;;;;;;5014446;28;20180;-82
2023/05/11 12:38:21;;;;;;;9.10;8.20;;;;;;;;;;5014932;28;20665;-82
2023/05/11 12:40:53;;;;;;;8.70;7.80;;;;;;;;;;5000702;28;20183;-81
2023/05/11 12:43:20;;;;;;;9.00;8.20;;;;;;;;;;5018209;28;20214;-82
2023/05/11 12:45:47;;;;;;;8.13;7.43;;;;;;;;;;5004349;28;20227;-81
2023/05/11 12:48:13;;;;;;;8.93;7.50;;;;;;;;;;5003130;28;20282;-82
2023/05/11 12:50:44;;;;;;;7.53;6.83;;;;;;;;;;5017730;28;20213;-82
2023/05/11 12:53:14;;;;;;;9.50;8.57;;;;;;;;;;5017396;28;20195;-81
2023/05/11 12:55:40;;;;;;;10.57;7.80;;;;;;;;;;5002153;28;20218;-82
2023/05/11 12:58:18;;;;;;;8.30;7.50;;;;;;;;;;5000985;28;20179;-81
2023/05/11 13:00:54;;;;;;;8.83;7.43;;;;;;;;;;5000578;28;20183;-82
2023/05/11 13:03:21;;;;;;;8.37;7.50;;;;;;;;;;5018101;28;20206;-82
2023/05/11 13:05:47;;;;;;;9.43;7.87;;;;;;;;;;5016628;28;20210;-82
2023/05/11 13:08:15;;;;;;;8.83;8.07;;;;;;;;;;5015841;28;20183;-82
2023/05/11 13:10:41;;;;;;;8.50;7.70;;;;;;;;;;4999406;28;20219;-82
2023/05/11 13:13:08;;;;;;;8.67;7.97;;;;;;;;;;4999094;28;20199;-82
2023/05/11 13:15:49;;;;;;;9.00;8.27;;;;;;;;;;5017463;28;20176;-82
2023/05/11 13:18:16;;;;;;;8.70;7.90;;;;;;;;;;5017267;28;20183;-82
2023/05/11 13:20:43;;;;;;;10.23;9.23;;;;;;;;;;5018334;28;20183;-81
2023/05/11 13:23:10;;;;;;;11.17;8.70;;;;;;;;;;5014512;28;20217;-81
2023/05/11 13:25:48;;;;;;;9.93;8.93;;;;;;;;;;4997432;28;20187;-81
2023/05/11 13:28:15;;;;;;;9.10;8.30;;;;;;;;;;4997209;28;20226;-81
2023/05/11 13:30:41;;;;;;;9.77;7.40;;;;;;;;;;5014368;28;20207;-81
2023/05/11 13:33:07;;;;;;;7.60;7.00;;;;;;;;;;5012920;28;20279;-81
2023/05/11 13:35:37;;;;;;;10.27;7.70;;;;;;;;;;5013959;28;20279;-81
2023/05/11 13:38:04;;;;;;;9.83;7.67;;;;;;;;;;5015062;28;20190;-81
2023/05/11 13:40:30;;;;;;;7.17;6.47;;;;;;;;;;5013498;28;20183;-80
2023/05/11 13:42:56;;;;;;;7.63;6.93;;;;;;;;;;4999432;28;20305;-80
2023/05/11 13:45:22;;;;;;;6.77;6.17;;;;;;;;;;5014885;28;20680;-81
2023/05/11 13:47:48;;;;;;;9.03;7.60;;;;;;;;;;5014657;28;20183;-80
2023/05/11 13:50:15;;;;;;;9.57;8.17;;;;;;;;;;5017640;28;20233;-81
2023/05/11 13:52:41;;;;;;;9.77;7.17;;;;;;;;;;5000782;28;20203;-81
2023/05/11 13:55:07;;;;;;;8.10;6.57;;;;;;;;;;5002857;28;20557;-81
2023/05/11 13:57:34;;;;;;;8.27;7.57;;;;;;;;;;5017659;28;20175;-81
2023/05/11 14:00:00;;;;;;;8.60;7.77;;;;;;;;;;4983648;28;20282;-81
2023/05/11 14:02:26;;;;;;;7.47;6.77;;;;;;;;;;5015391;28;20206;-81
2023/05/11 14:04:52;;;;;;;7.30;6.60;;;;;;;;;;4996510;28;20187;-81
2023/05/11 14:07:18;;;;;;;7.60;6.87;;;;;;;;;;5013119;28;20191;-82
2023/05/11 14:09:46;;;;;;;6.80;6.20;;;;;;;;;;5013194;28;20607;-81
2023/05/11 14:12:12;;;;;;;8.67;7.13;;;;;;;;;;4996012;28;20246;-81
2023/05/11 14:14:38;;;;;;;7.80;7.10;;;;;;;;;;5014137;28;20315;-81
2023/05/11 14:17:05;;;;;;;6.03;5.53;;;;;;;;;;5012792;28;20188;-81
2023/05/11 14:19:31;;;;;;;7.50;6.80;;;;;;;;;;4996234;28;20171;-80
2023/05/11 14:21:58;;;;;;;7.80;6.30;;;;;;;;;;4996213;28;20215;-80
2023/05/11 14:24:24;;;;;;;6.90;6.30;;;;;;;;;;5012773;28;20265;-80
2023/05/11 14:26:50;;;;;;;7.90;7.10;;;;;;;;;;5012027;28;20190;-81
2023/05/11 14:29:16;;;;;;;6.70;6.07;;;;;;;;;;4996121;28;20187;-80
2023/05/11 14:31:42;;;;;;;5.40;4.90;;;;;;;;;;4995807;28;20733;-81
2023/05/11 14:34:08;;;;;;;6.27;5.67;;;;;;;;;;4995559;28;20291;-81
2023/05/11 14:36:35;;;;;;;5.93;5.33;;;;;;;;;;5012520;28;20241;-81
2023/05/11 14:39:01;;;;;;;5.77;5.17;;;;;;;;;;4995949;28;20179;-81
2023/05/11 14:41:28;;;;;;;5.17;4.30;;;;;;;;;;5013324;28;20206;-81
2023/05/11 14:43:54;;;;;;;7.23;5.80;;;;;;;;;;5012592;28;20562;-80
2023/05/11 14:46:21;;;;;;;8.07;6.13;;;;;;;;;;4997006;28;20187;-81
2023/05/11 14:48:47;;;;;;;6.77;5.10;;;;;;;;;;4996637;28;20281;-81